createdAt,value
2018-07-23T00:02:12.148Z,15.53
2018-07-23T00:04:39.969Z,13.47
2018-07-23T00:07:07.805Z,15.07
2018-07-23T00:09:35.669Z,17.93
2018-07-23T00:12:03.566Z,16.10
2018-07-23T00:14:31.385Z,16.17
2018-07-23T00:16:59.230Z,15.93
2018-07-23T00:19:27.065Z,13.67
2018-07-23T00:21:54.940Z,14.73
2018-07-23T00:24:22.782Z,16.00
2018-07-23T00:26:50.639Z,14.13
2018-07-23T00:29:18.533Z,13.47
2018-07-23T00:31:46.418Z,11.67
2018-07-23T00:34:14.261Z,14.17
2018-07-23T00:36:42.091Z,12.33
2018-07-23T00:39:10.391Z,16.23
2018-07-23T00:41:38.345Z,15.47
2018-07-23T00:44:06.264Z,11.50
2018-07-23T00:46:34.114Z,11.87
2018-07-23T00:49:01.966Z,12.60
2018-07-23T00:51:29.861Z,12.57
2018-07-23T00:53:57.682Z,10.27
2018-07-23T00:56:25.512Z,9.90
2018-07-23T00:58:53.354Z,7.97
2018-07-23T01:01:21.173Z,9.30
2018-07-23T01:03:49.001Z,8.67
2018-07-23T01:06:16.825Z,6.10
2018-07-23T01:08:44.665Z,8.43
2018-07-23T01:11:12.477Z,7.70
2018-07-23T01:13:40.321Z,10.07
2018-07-23T01:16:08.137Z,8.67
2018-07-23T01:18:35.977Z,7.37
2018-07-23T01:21:03.846Z,8.00
2018-07-23T01:23:31.673Z,8.70
2018-07-23T01:25:59.517Z,7.90
2018-07-23T01:28:27.381Z,7.67
2018-07-23T01:30:55.267Z,8.33
2018-07-23T01:33:23.366Z,8.63
2018-07-23T01:35:51.221Z,7.57
2018-07-23T01:38:19.114Z,6.77
2018-07-23T01:40:46.942Z,5.40
2018-07-23T01:43:14.785Z,5.20
2018-07-23T01:45:42.689Z,5.60
2018-07-23T01:48:10.538Z,4.70
2018-07-23T01:50:38.388Z,5.53
2018-07-23T01:53:06.290Z,5.57
2018-07-23T01:55:34.188Z,8.90
2018-07-23T01:58:02.060Z,5.10
2018-07-23T02:00:29.982Z,6.90
2018-07-23T02:02:57.866Z,6.80
2018-07-23T02:05:25.722Z,6.67
2018-07-23T02:07:53.583Z,7.73
2018-07-23T02:10:21.433Z,7.03
2018-07-23T02:12:49.269Z,5.83
2018-07-23T02:15:17.134Z,10.70
2018-07-23T02:17:44.994Z,6.13
2018-07-23T02:20:12.835Z,6.87
2018-07-23T02:22:40.662Z,6.20
2018-07-23T02:25:08.473Z,7.37
2018-07-23T02:27:36.305Z,8.87
2018-07-23T02:30:04.290Z,8.70
2018-07-23T02:32:32.129Z,9.33
2018-07-23T02:35:00.225Z,7.40
2018-07-23T02:37:28.049Z,9.30
2018-07-23T02:39:55.901Z,8.70
2018-07-23T02:42:23.745Z,7.90
2018-07-23T02:44:51.570Z,9.53
2018-07-23T02:47:19.404Z,10.67
2018-07-23T02:49:47.252Z,13.67
2018-07-23T02:52:15.123Z,9.30
2018-07-23T02:54:42.969Z,10.07
2018-07-23T02:57:10.811Z,10.17
2018-07-23T02:59:38.648Z,14.00
2018-07-23T03:02:06.498Z,11.27
2018-07-23T03:04:34.308Z,9.83
2018-07-23T03:07:02.194Z,9.27
2018-07-23T03:09:30.105Z,9.23
2018-07-23T03:11:57.937Z,9.80
2018-07-23T03:14:25.756Z,9.40
2018-07-23T03:16:53.633Z,14.30
2018-07-23T03:19:21.485Z,10.60
2018-07-23T03:21:49.423Z,10.07
2018-07-23T03:24:17.225Z,9.63
2018-07-23T03:26:45.109Z,8.03
2018-07-23T03:29:13.041Z,8.30
2018-07-23T03:31:40.252Z,8.40
2018-07-23T03:34:08.105Z,8.37
2018-07-23T03:36:35.892Z,9.13
2018-07-23T03:39:05.699Z,9.03
2018-07-23T03:41:33.473Z,9.00
2018-07-23T03:44:01.265Z,8.80
2018-07-23T03:46:29.125Z,8.77
2018-07-23T03:48:56.907Z,8.53
2018-07-23T03:51:24.742Z,11.63
2018-07-23T03:53:53.010Z,9.07
2018-07-23T03:56:20.907Z,6.60
2018-07-23T03:58:48.806Z,6.30
2018-07-23T04:01:17.418Z,7.00
2018-07-23T04:03:45.237Z,6.47
2018-07-23T04:06:13.094Z,6.63
2018-07-23T04:08:40.945Z,7.33
2018-07-23T04:11:08.867Z,7.63
2018-07-23T04:13:36.700Z,8.90
2018-07-23T04:16:04.824Z,6.50
2018-07-23T04:18:32.639Z,7.70
2018-07-23T04:21:00.483Z,6.73
2018-07-23T04:23:28.321Z,8.77
2018-07-23T04:25:56.146Z,6.73
2018-07-23T04:28:24.059Z,8.03
2018-07-23T04:30:52.166Z,7.80
2018-07-23T04:33:19.992Z,5.50
2018-07-23T04:35:47.806Z,6.30
2018-07-23T04:38:15.653Z,6.00
2018-07-23T04:40:43.493Z,7.30
2018-07-23T04:43:11.306Z,4.93
2018-07-23T04:45:39.132Z,6.10
2018-07-23T04:48:06.949Z,6.30
2018-07-23T04:50:34.771Z,6.93
2018-07-23T04:53:02.642Z,7.10
2018-07-23T04:55:30.471Z,5.57
2018-07-23T04:57:58.293Z,4.20
2018-07-23T05:00:26.121Z,6.23
2018-07-23T05:02:53.956Z,4.53
2018-07-23T05:05:21.748Z,4.50
2018-07-23T05:07:49.558Z,5.53
2018-07-23T05:10:17.627Z,7.67
2018-07-23T05:12:45.406Z,7.23
2018-07-23T05:15:13.303Z,5.93
2018-07-23T05:17:41.116Z,5.83
2018-07-23T05:20:08.977Z,5.60
2018-07-23T05:22:37.381Z,7.97
2018-07-23T05:25:05.200Z,7.83
2018-07-23T05:27:33.014Z,7.13
2018-07-23T05:30:00.882Z,8.57
2018-07-23T05:32:28.720Z,8.03
2018-07-23T05:34:56.585Z,8.97
2018-07-23T05:37:24.474Z,6.53
2018-07-23T05:39:52.324Z,4.83
2018-07-23T05:42:20.222Z,6.43
2018-07-23T05:44:48.053Z,7.77
2018-07-23T05:47:15.877Z,8.93
2018-07-23T05:49:43.722Z,6.10
2018-07-23T05:52:11.553Z,6.63
2018-07-23T05:54:39.381Z,5.73
2018-07-23T05:57:07.544Z,6.90
2018-07-23T05:59:35.382Z,5.47
2018-07-23T06:02:03.269Z,7.10
2018-07-23T06:04:31.142Z,4.97
2018-07-23T06:06:59.074Z,7.60
2018-07-23T06:09:26.884Z,6.53
2018-07-23T06:11:54.714Z,5.53
2018-07-23T06:14:22.831Z,6.73
2018-07-23T06:16:50.693Z,6.23
2018-07-23T06:19:18.549Z,5.70
2018-07-23T06:21:46.423Z,6.03
2018-07-23T06:24:14.287Z,6.77
2018-07-23T06:26:42.106Z,6.73
2018-07-23T06:29:09.998Z,6.97
2018-07-23T06:31:37.826Z,6.57
2018-07-23T06:34:05.741Z,5.87
2018-07-23T06:36:33.790Z,5.93
2018-07-23T06:39:01.648Z,8.50
2018-07-23T06:41:29.614Z,9.53
2018-07-23T06:43:57.533Z,7.00
2018-07-23T06:46:25.374Z,7.23
2018-07-23T06:48:53.251Z,5.80
2018-07-23T06:51:21.077Z,6.77
2018-07-23T06:53:48.895Z,6.77
2018-07-23T06:56:16.767Z,6.20
2018-07-23T06:58:44.621Z,7.80
2018-07-23T07:01:12.508Z,6.93
2018-07-23T07:03:40.370Z,7.20
2018-07-23T07:06:08.238Z,5.87
2018-07-23T07:08:36.169Z,6.47
2018-07-23T07:11:04.147Z,11.33
2018-07-23T07:13:32.064Z,8.77
2018-07-23T07:15:59.957Z,6.73
2018-07-23T07:18:28.152Z,6.33
2018-07-23T07:20:55.977Z,6.53
2018-07-23T07:23:23.819Z,6.30
2018-07-23T07:25:51.703Z,6.33
2018-07-23T07:28:19.531Z,6.13
2018-07-23T07:30:47.389Z,7.10
2018-07-23T07:33:15.261Z,7.20
2018-07-23T07:35:43.122Z,12.03
2018-07-23T07:38:11.065Z,6.27
2018-07-23T07:40:39.529Z,6.23
2018-07-23T07:43:07.436Z,6.33
2018-07-23T07:45:35.306Z,6.93
2018-07-23T07:48:03.213Z,10.17
2018-07-23T07:50:31.202Z,9.63
2018-07-23T07:52:59.081Z,6.80
2018-07-23T07:55:26.929Z,6.17
2018-07-23T07:57:54.992Z,7.50
2018-07-23T08:00:22.882Z,6.60
2018-07-23T08:02:50.758Z,7.37
2018-07-23T08:05:18.794Z,9.20
2018-07-23T08:07:46.982Z,7.53
2018-07-23T08:10:14.955Z,8.73
2018-07-23T08:12:42.886Z,8.63
2018-07-23T08:15:10.769Z,8.30
2018-07-23T08:17:38.663Z,6.23
2018-07-23T08:20:06.611Z,8.97
2018-07-23T08:22:34.631Z,6.37
2018-07-23T08:25:02.477Z,8.67
2018-07-23T08:27:30.350Z,7.27
2018-07-23T08:29:58.178Z,5.77
2018-07-23T08:32:26.152Z,6.77
2018-07-23T08:34:53.986Z,7.73
2018-07-23T08:37:21.859Z,6.27
2018-07-23T08:39:49.799Z,6.70
2018-07-23T08:42:17.691Z,6.77
2018-07-23T08:44:45.562Z,6.13
2018-07-23T08:47:13.420Z,5.37
2018-07-23T08:49:41.751Z,6.80
2018-07-23T08:52:09.632Z,6.47
2018-07-23T08:54:37.466Z,7.20
2018-07-23T08:57:05.380Z,6.50
2018-07-23T08:59:33.276Z,6.07
2018-07-23T09:02:01.108Z,7.93
2018-07-23T09:04:28.997Z,6.50
2018-07-23T09:06:56.886Z,6.17
2018-07-23T09:09:24.718Z,7.17
2018-07-23T09:11:52.541Z,5.90
2018-07-23T09:14:21.157Z,9.50
2018-07-23T09:16:49.060Z,6.40
2018-07-23T09:19:16.921Z,6.00
2018-07-23T09:21:44.805Z,7.13
2018-07-23T09:24:12.667Z,6.90
2018-07-23T09:26:40.511Z,9.67
2018-07-23T09:29:08.388Z,8.23
2018-07-23T09:31:36.242Z,6.53
2018-07-23T09:34:09.629Z,8.13
2018-07-23T09:36:37.737Z,6.73
2018-07-23T09:39:08.062Z,6.73
2018-07-23T09:41:35.964Z,7.23
2018-07-23T09:44:03.871Z,9.27
2018-07-23T09:46:31.726Z,7.87
2018-07-23T09:48:59.567Z,8.40
2018-07-23T09:51:27.418Z,7.80
2018-07-23T09:53:55.317Z,10.10
2018-07-23T09:56:23.179Z,10.77
2018-07-23T09:58:51.092Z,9.80
2018-07-23T10:01:19.467Z,8.80
2018-07-23T10:03:47.679Z,10.10
2018-07-23T10:06:15.577Z,10.50
2018-07-23T10:08:43.489Z,9.80
2018-07-23T10:11:11.346Z,10.57
2018-07-23T10:13:39.192Z,9.63
2018-07-23T10:16:07.098Z,9.83
2018-07-23T10:18:34.932Z,13.60
2018-07-23T10:21:02.841Z,10.67
2018-07-23T10:23:30.734Z,10.70
2018-07-23T10:25:58.593Z,10.70
2018-07-23T10:28:26.573Z,12.23
2018-07-23T10:30:54.478Z,11.67
2018-07-23T10:33:22.322Z,10.47
2018-07-23T10:35:50.196Z,10.47
2018-07-23T10:38:18.070Z,10.20
2018-07-23T10:40:45.910Z,10.03
2018-07-23T10:43:13.738Z,12.30
2018-07-23T10:45:41.605Z,11.20
2018-07-23T10:48:09.465Z,8.63
2018-07-23T10:50:37.313Z,8.03
2018-07-23T10:53:05.169Z,9.07
2018-07-23T10:55:33.005Z,8.53
2018-07-23T10:58:00.835Z,8.77
2018-07-23T11:00:28.715Z,7.97
2018-07-23T11:02:56.605Z,8.67
2018-07-23T11:05:24.459Z,8.77
2018-07-23T11:07:52.310Z,9.43
2018-07-23T11:10:21.018Z,9.70
2018-07-23T11:12:48.926Z,9.57
2018-07-23T11:15:16.761Z,9.13
2018-07-23T11:17:44.609Z,9.00
2018-07-23T11:20:12.726Z,10.20
2018-07-23T11:22:41.060Z,10.37
2018-07-23T11:25:38.595Z,10.67
2018-07-23T11:27:36.805Z,11.20
2018-07-23T11:30:05.317Z,10.60
2018-07-23T11:32:33.606Z,10.80
2018-07-23T11:35:01.565Z,11.80
2018-07-23T11:37:29.513Z,11.60
2018-07-23T11:39:57.368Z,12.20
2018-07-23T11:42:25.173Z,10.93
2018-07-23T11:44:53.026Z,12.03
2018-07-23T11:47:20.840Z,12.60
2018-07-23T11:49:48.697Z,11.67
2018-07-23T11:52:16.562Z,12.20
2018-07-23T11:54:44.369Z,13.00
2018-07-23T11:57:12.553Z,12.13
2018-07-23T11:59:40.381Z,12.48
2018-07-23T12:02:08.555Z,12.53
2018-07-23T12:04:36.530Z,13.23
2018-07-23T12:07:04.926Z,14.77
2018-07-23T12:09:32.774Z,13.97
2018-07-23T12:12:00.626Z,14.50
2018-07-23T12:14:28.482Z,16.47
2018-07-23T12:16:56.720Z,19.80
2018-07-23T12:19:24.561Z,21.40
2018-07-23T12:21:52.365Z,21.70
2018-07-23T12:24:20.213Z,27.67
2018-07-23T12:26:48.050Z,29.97
2018-07-23T12:29:15.885Z,27.63
2018-07-23T12:31:43.735Z,28.83
2018-07-23T12:34:11.555Z,27.83
2018-07-23T12:36:39.381Z,32.57
2018-07-23T12:39:09.557Z,34.50
2018-07-23T12:41:37.431Z,27.87
2018-07-23T12:44:05.270Z,27.43
2018-07-23T12:46:33.262Z,30.80
2018-07-23T12:49:01.089Z,29.43
2018-07-23T12:51:28.952Z,27.73
2018-07-23T12:53:56.805Z,24.27
2018-07-23T12:56:24.715Z,23.07
2018-07-23T12:58:52.569Z,23.53
2018-07-23T13:01:20.405Z,22.93
2018-07-23T13:03:48.253Z,19.67
2018-07-23T13:06:16.089Z,21.93
2018-07-23T13:08:43.969Z,21.83
2018-07-23T13:11:11.869Z,19.33
2018-07-23T13:13:39.709Z,19.93
2018-07-23T13:16:07.600Z,18.70
2018-07-23T13:18:35.828Z,20.27
2018-07-23T13:21:03.768Z,18.93
2018-07-23T13:23:31.645Z,19.03
2018-07-23T13:25:59.498Z,19.57
2018-07-23T13:28:27.375Z,19.00
2018-07-23T13:30:55.238Z,17.33
2018-07-23T13:33:23.049Z,16.93
2018-07-23T13:35:50.877Z,16.23
2018-07-23T13:38:18.802Z,17.37
2018-07-23T13:40:46.659Z,16.87
2018-07-23T13:43:14.521Z,16.87
2018-07-23T13:45:42.373Z,16.43
2018-07-23T13:48:10.272Z,15.63
2018-07-23T13:50:38.153Z,17.00
2018-07-23T13:53:06.150Z,17.00
2018-07-23T13:55:34.375Z,17.83
2018-07-23T13:58:02.262Z,17.90
2018-07-23T14:00:30.584Z,16.83
2018-07-23T14:02:58.470Z,16.33
2018-07-23T14:05:26.390Z,16.07
2018-07-23T14:07:54.256Z,15.50
2018-07-23T14:10:22.135Z,16.07
2018-07-23T14:12:49.998Z,15.77
2018-07-23T14:15:17.896Z,15.97
2018-07-23T14:17:45.754Z,16.20
2018-07-23T14:20:13.629Z,15.80
2018-07-23T14:22:41.502Z,16.57
2018-07-23T14:25:09.358Z,15.13
2018-07-23T14:27:37.227Z,16.08
2018-07-23T14:30:05.230Z,15.43
2018-07-23T14:32:33.167Z,15.93
2018-07-23T14:35:01.054Z,15.10
2018-07-23T14:37:28.920Z,16.20
2018-07-23T14:39:56.840Z,17.47
2018-07-23T14:42:24.761Z,17.63
2018-07-23T14:44:52.658Z,17.73
2018-07-23T14:47:20.573Z,18.10
2018-07-23T14:49:48.557Z,17.63
2018-07-23T14:52:16.472Z,18.47
2018-07-23T14:54:44.357Z,18.17
2018-07-23T14:57:12.249Z,16.67
2018-07-23T14:59:40.174Z,16.40
2018-07-23T15:02:08.071Z,17.10
2018-07-23T15:04:35.950Z,17.50
2018-07-23T15:07:03.986Z,16.00
2018-07-23T15:09:31.869Z,17.40
2018-07-23T15:11:59.833Z,16.33
2018-07-23T15:14:27.697Z,15.90
2018-07-23T15:16:55.583Z,16.57
2018-07-23T15:19:23.457Z,16.33
2018-07-23T15:21:51.354Z,16.93
2018-07-23T15:24:19.441Z,15.73
2018-07-23T15:26:47.662Z,16.03
2018-07-23T15:29:16.539Z,15.60
2018-07-23T15:31:44.454Z,14.60
2018-07-23T15:34:12.351Z,15.03
2018-07-23T15:36:40.627Z,12.87
2018-07-23T15:39:10.069Z,12.03
2018-07-23T15:41:38.316Z,11.43
2018-07-23T15:44:06.338Z,11.87
2018-07-23T15:46:34.217Z,11.57
2018-07-23T15:49:02.105Z,13.07
2018-07-23T15:51:29.968Z,12.73
2018-07-23T15:53:58.305Z,12.10
2018-07-23T15:56:26.301Z,12.03
2018-07-23T15:58:54.610Z,11.70
2018-07-23T16:01:22.591Z,11.83
2018-07-23T16:03:50.485Z,13.07
2018-07-23T16:06:18.428Z,12.40
2018-07-23T16:08:46.342Z,11.37
2018-07-23T16:11:14.683Z,13.17
2018-07-23T16:13:42.549Z,12.30
2018-07-23T16:16:10.405Z,13.40
2018-07-23T16:18:38.281Z,12.30
2018-07-23T16:21:06.243Z,12.27
2018-07-23T16:23:34.160Z,12.23
2018-07-23T16:26:02.042Z,12.57
2018-07-23T16:28:29.918Z,17.90
2018-07-23T16:30:57.833Z,13.13
2018-07-23T16:33:25.827Z,12.50
2018-07-23T16:35:53.698Z,14.87
2018-07-23T16:38:21.619Z,13.63
2018-07-23T16:40:49.874Z,15.83
2018-07-23T16:43:17.764Z,14.57
2018-07-23T16:45:45.698Z,14.30
2018-07-23T16:48:13.594Z,15.40
2018-07-23T16:50:41.509Z,15.00
2018-07-23T16:53:09.645Z,14.83
2018-07-23T16:55:37.525Z,16.77
2018-07-23T16:58:05.448Z,15.50
2018-07-23T17:00:33.614Z,16.10
2018-07-23T17:03:01.453Z,18.67
2018-07-23T17:05:29.342Z,16.10
2018-07-23T17:07:57.199Z,24.03
2018-07-23T17:10:25.201Z,21.67
2018-07-23T17:12:53.048Z,25.03
2018-07-23T17:15:20.879Z,28.73
2018-07-23T17:17:48.823Z,31.57
2018-07-23T17:20:16.681Z,26.73
2018-07-23T17:22:44.529Z,25.93
2018-07-23T17:25:12.367Z,25.40
2018-07-23T17:27:40.286Z,29.13
2018-07-23T17:30:08.205Z,33.17
2018-07-23T17:32:36.027Z,274.03
2018-07-23T17:35:03.941Z,315.53
2018-07-23T17:37:31.817Z,277.73
2018-07-23T17:39:59.654Z,544.50
2018-07-23T17:42:27.532Z,232.53
2018-07-23T17:44:55.417Z,52.70
2018-07-23T17:47:23.282Z,30.17
2018-07-23T17:49:51.156Z,27.40
2018-07-23T17:52:18.994Z,27.30
2018-07-23T17:54:46.875Z,34.43
2018-07-23T17:57:14.755Z,34.33
2018-07-23T17:59:42.607Z,29.57
2018-07-23T18:02:10.484Z,31.30
2018-07-23T18:04:38.318Z,27.33
2018-07-23T18:07:06.222Z,28.85
2018-07-23T18:09:34.154Z,26.77
2018-07-23T18:12:01.997Z,25.60
2018-07-23T18:14:29.863Z,26.90
2018-07-23T18:16:57.698Z,25.57
2018-07-23T18:19:25.587Z,30.93
2018-07-23T18:21:53.445Z,26.07
2018-07-23T18:24:21.292Z,25.17
2018-07-23T18:26:49.193Z,24.43
2018-07-23T18:29:17.100Z,23.97
2018-07-23T18:31:44.980Z,25.97
2018-07-23T18:34:12.849Z,27.40
2018-07-23T18:36:40.761Z,27.87
2018-07-23T18:39:10.481Z,24.57
2018-07-23T18:41:38.541Z,24.53
2018-07-23T18:44:06.679Z,26.63
2018-07-23T18:46:34.569Z,27.30
2018-07-23T18:49:23.847Z,28.07
2018-07-23T18:51:52.749Z,28.17
2018-07-23T18:54:22.638Z,27.13
2018-07-23T18:56:53.224Z,28.33
2018-07-23T18:59:21.324Z,26.97
2018-07-23T19:01:50.201Z,28.57
2018-07-23T19:04:18.255Z,26.80
2018-07-23T19:06:46.237Z,28.40
2018-07-23T19:09:16.449Z,25.33
2018-07-23T19:11:45.385Z,23.40
2018-07-23T19:14:14.056Z,25.40
2018-07-23T19:16:42.345Z,25.43
2018-07-23T19:19:10.395Z,22.17
2018-07-23T19:21:38.343Z,22.60
2018-07-23T19:24:06.297Z,20.13
2018-07-23T19:26:34.238Z,18.50
2018-07-23T19:29:02.190Z,17.60
2018-07-23T19:31:30.333Z,14.77
2018-07-23T19:33:59.324Z,14.87
2018-07-23T19:36:27.412Z,13.63
2018-07-23T19:38:55.897Z,12.90
2018-07-23T19:41:24.310Z,13.17
2018-07-23T19:43:52.566Z,10.33
2018-07-23T19:46:20.576Z,10.77
2018-07-23T19:48:48.461Z,12.87
2018-07-23T19:51:16.389Z,15.33
2018-07-23T19:53:44.301Z,14.80
2018-07-23T19:56:12.270Z,13.50
2018-07-23T19:58:40.941Z,10.97
2018-07-23T20:01:08.951Z,9.23
2018-07-23T20:03:36.836Z,10.47
2018-07-23T20:06:04.784Z,17.73
2018-07-23T20:08:32.696Z,16.73
2018-07-23T20:11:00.644Z,14.90
2018-07-23T20:13:28.565Z,18.97
2018-07-23T20:15:56.957Z,14.27
2018-07-23T20:18:24.908Z,16.37
2018-07-23T20:20:52.993Z,15.93
2018-07-23T20:23:20.972Z,17.67
2018-07-23T20:25:48.905Z,18.80
2018-07-23T20:28:16.832Z,19.50
2018-07-23T20:30:44.723Z,20.63
2018-07-23T20:33:12.621Z,18.67
2018-07-23T20:35:40.560Z,21.50
2018-07-23T20:38:08.575Z,21.60
2018-07-23T20:40:36.550Z,21.33
2018-07-23T20:43:04.530Z,21.60
2018-07-23T20:45:32.465Z,20.60
2018-07-23T20:48:00.338Z,20.13
2018-07-23T20:50:28.527Z,19.57
2018-07-23T20:52:56.441Z,20.63
2018-07-23T20:55:24.313Z,19.40
2018-07-23T20:57:52.168Z,20.83
2018-07-23T21:00:20.101Z,21.37
2018-07-23T21:02:48.002Z,21.37
2018-07-23T21:05:15.887Z,21.50
2018-07-23T21:07:43.751Z,20.83
2018-07-23T21:10:11.688Z,21.37
2018-07-23T21:12:39.568Z,21.47
2018-07-23T21:15:08.167Z,20.10
2018-07-23T21:17:36.008Z,20.40
2018-07-23T21:20:05.479Z,19.63
2018-07-23T21:22:33.376Z,20.77
2018-07-23T21:25:01.528Z,20.90
2018-07-23T21:27:29.385Z,20.80
2018-07-23T21:29:57.283Z,20.70
2018-07-23T21:32:25.156Z,20.23
2018-07-23T21:34:52.983Z,17.90
2018-07-23T21:37:20.848Z,18.60
2018-07-23T21:39:48.740Z,21.57
2018-07-23T21:42:16.628Z,18.37
2018-07-23T21:44:44.531Z,18.33
2018-07-23T21:47:12.370Z,19.17
2018-07-23T21:49:40.226Z,17.73
2018-07-23T21:52:08.088Z,19.20
2018-07-23T21:54:35.951Z,19.93
2018-07-23T21:57:03.820Z,20.07
2018-07-23T21:59:31.653Z,18.47
2018-07-23T22:01:59.584Z,18.97
2018-07-23T22:04:27.431Z,16.43
2018-07-23T22:06:55.291Z,17.97
2018-07-23T22:09:23.157Z,16.67
2018-07-23T22:11:50.972Z,16.73
2018-07-23T22:14:18.909Z,20.20
2018-07-23T22:16:46.779Z,18.07
2018-07-23T22:19:14.594Z,18.67
2018-07-23T22:21:42.434Z,17.83
2018-07-23T22:24:10.246Z,18.63
2018-07-23T22:26:38.161Z,19.57
2018-07-23T22:29:06.065Z,18.47
2018-07-23T22:31:33.942Z,18.30
2018-07-23T22:34:01.780Z,17.93
2018-07-23T22:36:29.645Z,17.40
2018-07-23T22:38:57.593Z,17.53
2018-07-23T22:41:25.424Z,18.70
2018-07-23T22:43:53.233Z,18.60
2018-07-23T22:46:21.141Z,16.80
2018-07-23T22:48:49.294Z,16.97
2018-07-23T22:51:17.153Z,17.83
2018-07-23T22:53:44.969Z,21.57
2018-07-23T22:56:12.809Z,19.30
2018-07-23T22:58:40.676Z,22.60
2018-07-23T23:01:08.604Z,17.03
2018-07-23T23:03:36.461Z,17.73
2018-07-23T23:06:04.343Z,17.93
2018-07-23T23:08:32.226Z,18.37
2018-07-23T23:11:00.121Z,17.63
2018-07-23T23:13:27.979Z,17.23
2018-07-23T23:15:55.845Z,17.43
2018-07-23T23:18:23.702Z,14.70
2018-07-23T23:20:51.546Z,14.83
2018-07-23T23:23:19.397Z,14.47
2018-07-23T23:25:47.267Z,14.23
2018-07-23T23:28:15.101Z,16.23
2018-07-23T23:30:42.949Z,14.57
2018-07-23T23:33:10.795Z,17.90
2018-07-23T23:35:38.646Z,12.43
2018-07-23T23:38:06.494Z,13.80
2018-07-23T23:40:34.382Z,13.80
2018-07-23T23:43:02.270Z,14.77
2018-07-23T23:45:30.097Z,13.10
2018-07-23T23:47:57.924Z,16.00
2018-07-23T23:50:25.757Z,14.40
2018-07-23T23:52:53.593Z,16.27
2018-07-23T23:55:21.417Z,15.40
2018-07-23T23:57:49.217Z,14.93
